createdAt,value
2019-04-01T00:01:28.838Z,79.10
2019-04-01T00:03:57.067Z,79.50
2019-04-01T00:06:25.563Z,79.60
2019-04-01T00:08:53.800Z,79.60
2019-04-01T00:11:22.036Z,79.50
2019-04-01T00:13:50.292Z,79.60
2019-04-01T00:16:18.530Z,79.20
2019-04-01T00:18:46.772Z,78.60
2019-04-01T00:21:15.004Z,79.40
2019-04-01T00:23:43.256Z,79.10
2019-04-01T00:26:11.496Z,79.40
2019-04-01T00:28:39.736Z,79.70
2019-04-01T00:31:08.220Z,80.20
2019-04-01T00:33:36.468Z,80.80
2019-04-01T00:36:04.712Z,81.30
2019-04-01T00:38:33.208Z,81.60
2019-04-01T00:41:01.448Z,81.50
2019-04-01T00:43:40.489Z,81.30
2019-04-01T00:46:09.792Z,81.60
2019-04-01T00:48:38.044Z,81.70
2019-04-01T00:51:06.368Z,82.50
2019-04-01T00:53:34.608Z,81.60
2019-04-01T00:56:02.854Z,82.00
2019-04-01T00:58:31.102Z,81.90
2019-04-01T01:00:59.335Z,81.70
2019-04-01T01:03:27.593Z,81.00
2019-04-01T01:05:55.824Z,80.90
2019-04-01T01:08:24.072Z,80.60
2019-04-01T01:10:52.316Z,80.60
2019-04-01T01:13:20.559Z,80.90
2019-04-01T01:15:48.795Z,81.30
2019-04-01T01:18:17.286Z,81.40
2019-04-01T01:20:45.526Z,81.50
2019-04-01T01:23:13.764Z,81.60
2019-04-01T01:25:42.000Z,82.30
2019-04-01T01:28:10.240Z,82.00
2019-04-01T01:30:38.478Z,81.10
2019-04-01T01:33:06.982Z,81.50
2019-04-01T01:35:35.295Z,81.20
2019-04-01T01:38:03.532Z,80.90
2019-04-01T01:40:31.787Z,81.40
2019-04-01T01:43:00.099Z,81.90
2019-04-01T01:45:28.602Z,81.50
2019-04-01T01:47:56.832Z,81.80
2019-04-01T01:50:25.080Z,81.70
2019-04-01T01:52:53.457Z,81.60
2019-04-01T01:55:21.720Z,82.20
2019-04-01T01:57:49.956Z,82.10
2019-04-01T02:00:18.873Z,82.10
2019-04-01T02:02:47.111Z,81.80
2019-04-01T02:05:15.601Z,81.70
2019-04-01T02:07:43.838Z,81.60
2019-04-01T02:10:12.090Z,82.20
2019-04-01T02:12:40.322Z,82.50
2019-04-01T02:15:08.823Z,82.30
2019-04-01T02:17:37.067Z,82.60
2019-04-01T02:20:06.025Z,82.60
2019-04-01T02:22:34.260Z,82.00
2019-04-01T02:25:02.515Z,83.00
2019-04-01T02:27:30.751Z,83.10
2019-04-01T02:29:59.006Z,83.10
2019-04-01T02:32:27.247Z,83.00
2019-04-01T02:34:55.495Z,82.50
2019-04-01T02:37:23.737Z,81.60
2019-04-01T02:39:51.997Z,82.00
2019-04-01T02:42:20.251Z,82.70
2019-04-01T02:44:48.758Z,83.10
2019-04-01T02:47:17.006Z,83.40
2019-04-01T02:49:45.256Z,83.90
2019-04-01T02:52:13.521Z,83.70
2019-04-01T02:54:41.767Z,82.60
2019-04-01T02:57:10.006Z,82.60
2019-04-01T02:59:38.248Z,82.60
2019-04-01T03:02:06.759Z,82.60
2019-04-01T03:04:35.008Z,83.00
2019-04-01T03:07:03.259Z,83.00
2019-04-01T03:09:31.790Z,83.00
2019-04-01T03:12:00.284Z,82.90
2019-04-01T03:14:28.537Z,83.10
2019-04-01T03:16:56.790Z,83.00
2019-04-01T03:19:25.040Z,82.30
2019-04-01T03:21:53.294Z,82.30
2019-04-01T03:24:21.529Z,83.30
2019-04-01T03:26:50.040Z,83.80
2019-04-01T03:29:18.284Z,83.20
2019-04-01T03:31:46.549Z,82.60
2019-04-01T03:34:15.116Z,83.20
2019-04-01T03:36:43.431Z,83.00
2019-04-01T03:39:11.679Z,84.00
2019-04-01T03:41:39.984Z,84.20
2019-04-01T03:44:08.286Z,84.10
2019-04-01T03:46:36.546Z,84.30
2019-04-01T03:49:04.810Z,84.70
2019-04-01T03:51:33.382Z,83.80
2019-04-01T03:54:01.638Z,84.70
2019-04-01T03:56:29.894Z,83.70
2019-04-01T03:58:58.152Z,84.00
2019-04-01T04:01:30.323Z,84.30
2019-04-01T04:03:56.646Z,84.10
2019-04-01T04:06:24.913Z,85.10
2019-04-01T04:08:53.187Z,85.90
2019-04-01T04:11:21.778Z,86.30
2019-04-01T04:13:50.041Z,86.90
2019-04-01T04:16:18.285Z,87.40
2019-04-01T04:18:46.550Z,87.10
2019-04-01T04:21:15.071Z,87.00
2019-04-01T04:23:43.327Z,87.30
2019-04-01T04:26:11.579Z,87.50
2019-04-01T04:28:39.987Z,87.20
2019-04-01T04:31:08.217Z,87.60
2019-04-01T04:33:36.467Z,87.20
2019-04-01T04:36:04.733Z,86.60
2019-04-01T04:38:32.984Z,85.70
2019-04-01T04:41:01.232Z,85.70
2019-04-01T04:43:29.474Z,86.00
2019-04-01T04:45:57.735Z,86.20
2019-04-01T04:48:25.973Z,85.80
2019-04-01T04:50:54.574Z,86.70
2019-04-01T04:53:22.808Z,87.10
2019-04-01T04:55:51.075Z,86.30
2019-04-01T04:58:19.322Z,85.70
2019-04-01T05:00:47.573Z,86.00
2019-04-01T05:03:15.831Z,85.80
2019-04-01T05:05:44.087Z,86.30
2019-04-01T05:08:12.576Z,86.20
2019-04-01T05:10:40.837Z,85.80
2019-04-01T05:13:09.096Z,86.00
2019-04-01T05:15:37.336Z,85.80
2019-04-01T05:18:05.914Z,85.50
2019-04-01T05:20:34.254Z,85.40
2019-04-01T05:23:02.497Z,85.70
2019-04-01T05:25:32.038Z,85.90
2019-04-01T05:28:00.874Z,85.80
2019-04-01T05:30:29.861Z,85.80
2019-04-01T05:32:58.189Z,85.80
2019-04-01T05:35:26.436Z,85.70
2019-04-01T05:37:54.695Z,85.60
2019-04-01T05:40:23.013Z,85.70
2019-04-01T05:42:51.287Z,86.30
2019-04-01T05:45:19.518Z,86.10
2019-04-01T05:47:52.611Z,86.40
2019-04-01T05:50:20.865Z,86.70
2019-04-01T05:52:49.198Z,87.00
2019-04-01T05:55:17.516Z,87.30
2019-04-01T05:57:45.815Z,87.50
2019-04-01T06:00:20.968Z,87.80
2019-04-01T06:02:49.420Z,88.20
2019-04-01T06:05:17.671Z,87.70
2019-04-01T06:07:45.925Z,87.50
2019-04-01T06:10:14.180Z,87.90
2019-04-01T06:12:42.585Z,87.70
2019-04-01T06:15:11.105Z,88.00
2019-04-01T06:17:39.461Z,87.60
2019-04-01T06:20:07.704Z,87.50
2019-04-01T06:22:35.965Z,88.30
2019-04-01T06:25:05.659Z,88.60
2019-04-01T06:27:33.920Z,89.30
2019-04-01T06:30:02.161Z,89.70
2019-04-01T06:32:30.486Z,90.20
2019-04-01T06:34:58.724Z,89.90
2019-04-01T06:37:26.976Z,89.30
2019-04-01T06:39:55.217Z,89.20
2019-04-01T06:42:23.477Z,88.20
2019-04-01T06:44:51.718Z,88.60
2019-04-01T06:47:19.964Z,88.30
2019-04-01T06:49:48.229Z,87.90
2019-04-01T06:52:16.477Z,87.50
2019-04-01T06:54:44.721Z,87.00
2019-04-01T06:57:13.226Z,86.80
2019-04-01T06:59:41.710Z,86.20
2019-04-01T07:02:10.257Z,85.10
2019-04-01T07:04:38.499Z,84.80
2019-04-01T07:07:18.336Z,83.20
2019-04-01T07:09:36.963Z,81.20
2019-04-01T07:12:05.217Z,79.80
2019-04-01T07:14:33.468Z,79.40
2019-04-01T07:17:01.732Z,77.10
2019-04-01T07:19:30.220Z,75.60
2019-04-01T07:21:58.469Z,70.40
2019-04-01T07:24:26.708Z,67.20
2019-04-01T07:26:54.949Z,64.40
2019-04-01T07:29:23.205Z,63.50
2019-04-01T07:31:51.444Z,59.40
2019-04-01T07:34:19.774Z,58.40
2019-04-01T07:36:48.009Z,55.50
2019-04-01T07:39:16.257Z,55.40
2019-04-01T07:41:44.488Z,52.90
2019-04-01T07:44:13.020Z,50.90
2019-04-01T07:46:41.497Z,49.20
2019-04-01T07:49:09.762Z,49.30
2019-04-01T07:51:38.884Z,48.40
2019-04-01T07:54:07.294Z,46.80
2019-04-01T07:56:35.535Z,47.20
2019-04-01T07:59:03.777Z,46.90
2019-04-01T08:01:32.024Z,46.00
2019-04-01T08:04:00.540Z,43.70
2019-04-01T08:06:29.043Z,42.30
2019-04-01T08:08:57.364Z,42.00
2019-04-01T08:11:25.608Z,41.50
2019-04-01T08:13:53.882Z,41.90
2019-04-01T08:16:22.116Z,40.60
2019-04-01T08:18:50.377Z,40.30
2019-04-01T08:21:18.617Z,40.80
2019-04-01T08:23:46.865Z,41.30
2019-04-01T08:26:15.130Z,39.80
2019-04-01T08:28:43.394Z,39.60
2019-04-01T08:31:13.313Z,40.60
2019-04-01T08:33:41.773Z,38.00
2019-04-01T08:36:10.282Z,38.20
2019-04-01T08:38:38.798Z,38.00
2019-04-01T08:41:07.042Z,37.60
2019-04-01T08:43:35.329Z,37.50
2019-04-01T08:46:03.576Z,38.30
2019-04-01T08:48:35.336Z,38.20
2019-04-01T08:51:01.790Z,37.80
2019-04-01T08:53:30.043Z,37.80
2019-04-01T08:56:00.842Z,35.20
2019-04-01T08:58:28.269Z,36.30
2019-04-01T09:00:56.967Z,35.10
2019-04-01T09:03:25.471Z,33.60
2019-04-01T09:05:53.862Z,33.40
2019-04-01T09:08:22.212Z,34.60
2019-04-01T09:10:50.726Z,34.40
2019-04-01T09:13:19.052Z,34.40
2019-04-01T09:15:47.292Z,33.70
2019-04-01T09:18:15.550Z,34.30
2019-04-01T09:20:43.795Z,32.90
2019-04-01T09:23:12.050Z,35.60
2019-04-01T09:25:40.298Z,34.30
2019-04-01T09:28:08.553Z,32.60
2019-04-01T09:30:37.065Z,32.20
2019-04-01T09:33:05.563Z,32.10
2019-04-01T09:35:34.098Z,32.50
2019-04-01T09:38:02.360Z,34.60
2019-04-01T09:40:30.600Z,33.80
2019-04-01T09:42:59.226Z,33.60
2019-04-01T09:45:27.476Z,32.70
2019-04-01T09:47:55.724Z,32.30
2019-04-01T09:50:23.983Z,33.40
2019-04-01T09:52:52.264Z,33.80
2019-04-01T09:55:20.648Z,32.30
2019-04-01T09:57:48.896Z,31.60
2019-04-01T10:00:17.152Z,32.40
2019-04-01T10:02:45.391Z,32.30
2019-04-01T10:05:13.911Z,34.30
2019-04-01T10:07:42.364Z,34.00
2019-04-01T10:10:10.869Z,35.10
2019-04-01T10:12:39.120Z,34.40
2019-04-01T10:15:07.378Z,35.20
2019-04-01T10:17:35.661Z,35.00
2019-04-01T10:20:06.258Z,37.00
2019-04-01T10:22:34.519Z,36.80
2019-04-01T10:25:02.783Z,35.80
2019-04-01T10:27:31.024Z,37.40
2019-04-01T10:29:59.534Z,36.90
2019-04-01T10:32:28.028Z,36.80
2019-04-01T10:34:56.272Z,38.40
2019-04-01T10:37:24.785Z,38.10
2019-04-01T10:39:53.038Z,39.00
2019-04-01T10:42:21.280Z,38.00
2019-04-01T10:44:49.534Z,38.50
2019-04-01T10:47:17.817Z,40.40
2019-04-01T10:49:46.277Z,41.00
2019-04-01T10:52:14.541Z,40.30
2019-04-01T10:54:42.904Z,38.90
2019-04-01T10:57:11.255Z,39.30
2019-04-01T10:59:39.618Z,39.30
2019-04-01T11:02:08.041Z,39.20
2019-04-01T11:04:36.687Z,38.40
2019-04-01T11:07:05.033Z,37.40
2019-04-01T11:09:38.671Z,35.50
2019-04-01T11:12:03.288Z,35.70
2019-04-01T11:14:31.534Z,34.80
2019-04-01T11:16:59.785Z,35.20
2019-04-01T11:19:28.025Z,33.30
2019-04-01T11:21:56.300Z,34.90
2019-04-01T11:24:24.549Z,35.10
2019-04-01T11:26:52.800Z,32.70
2019-04-01T11:29:21.052Z,32.70
2019-04-01T11:31:49.320Z,32.50
2019-04-01T11:34:17.582Z,30.90
2019-04-01T11:36:46.087Z,31.30
2019-04-01T11:39:14.333Z,31.30
2019-04-01T11:41:42.682Z,31.40
2019-04-01T11:44:11.026Z,32.20
2019-04-01T11:46:39.377Z,32.00
2019-04-01T11:49:07.705Z,32.40
2019-04-01T11:51:39.729Z,32.30
2019-04-01T11:54:08.166Z,31.40
2019-04-01T11:56:36.192Z,29.80
2019-04-01T11:59:04.444Z,28.90
2019-04-01T12:01:32.704Z,28.80
2019-04-01T12:04:00.965Z,28.40
2019-04-01T12:06:29.200Z,29.90
2019-04-01T12:08:58.854Z,30.00
2019-04-01T12:11:27.273Z,28.70
2019-04-01T12:13:56.933Z,29.30
2019-04-01T12:16:25.308Z,29.30
2019-04-01T12:18:53.797Z,29.40
2019-04-01T12:21:22.044Z,28.70
2019-04-01T12:23:50.290Z,28.80
2019-04-01T12:26:18.596Z,28.60
2019-04-01T12:28:46.845Z,28.80
2019-04-01T12:31:15.101Z,27.80
2019-04-01T12:33:43.601Z,27.50
2019-04-01T12:36:12.108Z,29.30
2019-04-01T12:38:40.477Z,28.60
2019-04-01T12:41:08.741Z,28.30
2019-04-01T12:43:37.242Z,28.10
2019-04-01T12:46:05.580Z,28.20
2019-04-01T12:48:33.955Z,27.60
2019-04-01T12:51:02.214Z,27.20
2019-04-01T12:53:30.463Z,28.00
2019-04-01T12:55:58.738Z,27.20
2019-04-01T12:58:26.974Z,27.40
2019-04-01T13:00:55.233Z,27.70
2019-04-01T13:03:23.801Z,26.40
2019-04-01T13:05:52.053Z,27.40
2019-04-01T13:08:20.289Z,27.30
2019-04-01T13:10:48.673Z,28.50
2019-04-01T13:13:17.243Z,26.80
2019-04-01T13:15:45.755Z,26.80
2019-04-01T13:18:14.002Z,26.80
2019-04-01T13:20:42.366Z,26.80
2019-04-01T13:23:10.593Z,27.30
2019-04-01T13:25:39.107Z,27.40
2019-04-01T13:28:07.612Z,27.70
2019-04-01T13:30:35.856Z,27.60
2019-04-01T13:33:04.104Z,27.80
2019-04-01T13:35:32.369Z,27.60
2019-04-01T13:38:00.608Z,27.10
2019-04-01T13:40:29.129Z,26.20
2019-04-01T13:42:57.378Z,26.70
2019-04-01T13:45:31.134Z,26.90
2019-04-01T13:47:55.855Z,27.80
2019-04-01T13:50:24.116Z,27.30
2019-04-01T13:52:52.360Z,27.70
2019-04-01T13:55:20.609Z,27.90
2019-04-01T13:57:48.855Z,26.50
2019-04-01T14:00:17.159Z,27.10
2019-04-01T14:02:45.429Z,27.80
2019-04-01T14:05:13.686Z,28.90
2019-04-01T14:07:41.926Z,26.90
2019-04-01T14:10:10.496Z,26.70
2019-04-01T14:12:38.741Z,28.00
2019-04-01T14:15:07.061Z,28.30
2019-04-01T14:17:35.325Z,28.90
2019-04-01T14:20:04.065Z,28.40
2019-04-01T14:22:32.589Z,28.30
2019-04-01T14:25:01.057Z,28.50
2019-04-01T14:27:29.451Z,29.20
2019-04-01T14:29:57.706Z,27.90
2019-04-01T14:32:25.961Z,29.60
2019-04-01T14:34:54.461Z,29.00
2019-04-01T14:37:26.004Z,28.50
2019-04-01T14:39:52.695Z,29.20
2019-04-01T14:42:20.955Z,28.60
2019-04-01T14:44:58.460Z,28.50
2019-04-01T14:47:26.900Z,29.50
2019-04-01T14:49:55.152Z,29.90
2019-04-01T14:52:32.222Z,29.70
2019-04-01T14:54:55.131Z,29.70
2019-04-01T14:57:23.575Z,29.90
2019-04-01T14:59:51.819Z,30.30
2019-04-01T15:02:20.075Z,30.80
2019-04-01T15:04:48.321Z,29.80
2019-04-01T15:07:18.346Z,29.80
2019-04-01T15:09:46.862Z,30.00
2019-04-01T15:12:15.286Z,29.90
2019-04-01T15:14:43.525Z,30.30
2019-04-01T15:17:11.798Z,29.60
2019-04-01T15:19:40.036Z,29.80
2019-04-01T15:22:08.298Z,29.50
2019-04-01T15:24:36.834Z,29.00
2019-04-01T15:27:05.350Z,29.70
2019-04-01T15:29:33.649Z,29.50
2019-04-01T15:32:02.166Z,30.50
2019-04-01T15:34:30.435Z,29.90
2019-04-01T15:36:58.938Z,29.90
2019-04-01T15:39:27.176Z,29.70
2019-04-01T15:41:55.436Z,29.70
2019-04-01T15:44:23.962Z,30.60
2019-04-01T15:46:52.200Z,31.20
2019-04-01T15:49:20.442Z,31.20
2019-04-01T15:51:48.698Z,31.10
2019-04-01T15:54:16.952Z,30.20
2019-04-01T15:56:45.204Z,30.20
2019-04-01T15:59:13.459Z,32.40
2019-04-01T16:01:41.718Z,31.80
2019-04-01T16:04:09.969Z,32.20
2019-04-01T16:06:38.292Z,32.10
2019-04-01T16:09:06.855Z,31.70
2019-04-01T16:11:35.188Z,31.00
2019-04-01T16:14:03.429Z,31.00
2019-04-01T16:16:31.678Z,32.30
2019-04-01T16:19:00.178Z,32.40
2019-04-01T16:21:31.352Z,34.20
2019-04-01T16:23:58.830Z,33.90
2019-04-01T16:26:27.068Z,33.50
2019-04-01T16:28:55.350Z,33.20
2019-04-01T16:31:23.586Z,33.90
2019-04-01T16:33:52.739Z,33.70
2019-04-01T16:36:21.010Z,32.80
2019-04-01T16:38:49.721Z,33.20
2019-04-01T16:41:17.956Z,34.20
2019-04-01T16:43:46.725Z,34.80
2019-04-01T16:46:15.076Z,34.60
2019-04-01T16:48:46.325Z,36.00
2019-04-01T16:51:13.562Z,35.00
2019-04-01T16:53:44.333Z,35.90
2019-04-01T16:56:11.786Z,35.30
2019-04-01T16:58:40.076Z,34.40
2019-04-01T17:01:08.349Z,34.40
2019-04-01T17:03:36.701Z,36.00
2019-04-01T17:06:05.044Z,36.60
2019-04-01T17:08:33.345Z,35.80
2019-04-01T17:11:02.185Z,35.90
2019-04-01T17:13:30.792Z,35.50
2019-04-01T17:16:01.493Z,36.20
2019-04-01T17:18:29.145Z,36.40
2019-04-01T17:20:57.650Z,35.90
2019-04-01T17:23:28.071Z,36.00
2019-04-01T17:25:56.335Z,35.60
2019-04-01T17:28:24.617Z,36.70
2019-04-01T17:30:52.873Z,36.90
2019-04-01T17:33:21.126Z,37.70
2019-04-01T17:35:49.380Z,37.50
2019-04-01T17:38:17.883Z,37.70
2019-04-01T17:40:46.382Z,38.30
2019-04-01T17:43:16.325Z,38.50
2019-04-01T17:45:44.997Z,38.70
2019-04-01T17:48:13.277Z,38.80
2019-04-01T17:50:41.523Z,39.80
2019-04-01T17:53:09.784Z,40.00
2019-04-01T17:55:41.404Z,40.20
2019-04-01T17:58:09.789Z,40.20
2019-04-01T18:00:42.716Z,40.50
2019-04-01T18:03:11.021Z,40.50
2019-04-01T18:05:39.290Z,40.60
2019-04-01T18:08:07.607Z,40.70
2019-04-01T18:10:35.865Z,41.30
2019-04-01T18:13:04.196Z,41.70
2019-04-01T18:15:32.709Z,41.00
2019-04-01T18:18:00.984Z,41.50
2019-04-01T18:20:29.718Z,41.50
2019-04-01T18:22:58.340Z,41.80
2019-04-01T18:25:26.648Z,41.50
2019-04-01T18:27:55.158Z,41.40
2019-04-01T18:30:23.518Z,42.00
2019-04-01T18:32:55.151Z,42.80
2019-04-01T18:35:22.055Z,42.50
2019-04-01T18:37:50.302Z,42.30
2019-04-01T18:40:31.934Z,42.70
2019-04-01T18:42:48.527Z,42.60
2019-04-01T18:45:17.258Z,43.10
2019-04-01T18:47:45.799Z,43.00
2019-04-01T18:50:14.692Z,42.90
2019-04-01T18:52:43.045Z,43.70
2019-04-01T18:55:11.337Z,44.00
2019-04-01T18:57:39.570Z,44.00
2019-04-01T19:00:09.328Z,44.30
2019-04-01T19:02:37.569Z,43.80
2019-04-01T19:05:05.834Z,44.40
2019-04-01T19:07:35.234Z,44.70
2019-04-01T19:10:06.701Z,44.50
2019-04-01T19:12:36.051Z,44.60
2019-04-01T19:15:06.860Z,44.90
2019-04-01T19:17:35.326Z,45.00
2019-04-01T19:20:05.610Z,44.70
2019-04-01T19:22:33.874Z,44.50
2019-04-01T19:25:02.117Z,44.50
2019-04-01T19:27:30.366Z,45.00
2019-04-01T19:29:58.607Z,44.30
2019-04-01T19:32:27.449Z,44.80
2019-04-01T19:34:55.795Z,45.50
2019-04-01T19:37:24.051Z,45.20
2019-04-01T19:39:52.598Z,45.30
2019-04-01T19:42:20.882Z,45.50
2019-04-01T19:44:49.120Z,45.50
2019-04-01T19:47:17.820Z,46.00
2019-04-01T19:49:46.081Z,46.00
2019-04-01T19:52:14.339Z,46.20
2019-04-01T19:54:42.629Z,46.90
2019-04-01T19:57:10.896Z,46.70
2019-04-01T19:59:39.144Z,47.10
2019-04-01T20:02:09.529Z,47.40
2019-04-01T20:04:37.358Z,47.60
2019-04-01T20:07:05.714Z,47.70
2019-04-01T20:09:33.961Z,47.60
2019-04-01T20:12:02.214Z,47.70
2019-04-01T20:14:30.485Z,47.80
2019-04-01T20:17:01.848Z,48.30
2019-04-01T20:19:28.756Z,48.40
2019-04-01T20:21:57.409Z,48.60
2019-04-01T20:24:25.949Z,48.80
2019-04-01T20:26:54.457Z,48.80
2019-04-01T20:29:22.697Z,49.20
2019-04-01T20:31:50.962Z,49.50
2019-04-01T20:34:20.273Z,49.80
2019-04-01T20:36:49.494Z,50.00
2019-04-01T20:39:17.729Z,50.30
2019-04-01T20:41:45.974Z,50.40
2019-04-01T20:44:14.216Z,50.60
2019-04-01T20:46:42.751Z,50.50
2019-04-01T20:49:11.254Z,50.30
2019-04-01T20:51:39.504Z,50.50
2019-04-01T20:54:07.788Z,50.40
2019-04-01T20:56:36.103Z,50.50
2019-04-01T20:59:04.341Z,50.80
2019-04-01T21:01:32.596Z,51.00
2019-04-01T21:04:00.851Z,51.40
2019-04-01T21:06:29.089Z,51.60
2019-04-01T21:08:57.599Z,51.50
2019-04-01T21:11:26.091Z,51.80
2019-04-01T21:13:54.332Z,52.20
2019-04-01T21:16:22.605Z,51.50
2019-04-01T21:18:50.844Z,51.40
2019-04-01T21:21:19.346Z,51.80
2019-04-01T21:23:47.609Z,51.60
2019-04-01T21:26:16.114Z,51.80
2019-04-01T21:28:44.377Z,51.60
2019-04-01T21:31:12.892Z,51.70
2019-04-01T21:33:42.111Z,51.80
2019-04-01T21:36:10.493Z,51.80
2019-04-01T21:38:38.749Z,51.30
2019-04-01T21:41:07.243Z,51.30
2019-04-01T21:43:35.489Z,51.90
2019-04-01T21:46:03.990Z,51.60
2019-04-01T21:48:32.260Z,51.80
2019-04-01T21:51:00.508Z,51.20
2019-04-01T21:53:29.037Z,51.30
2019-04-01T21:55:57.278Z,51.30
2019-04-01T21:58:25.798Z,50.70
2019-04-01T22:00:55.908Z,50.70
2019-04-01T22:03:24.165Z,50.90
2019-04-01T22:05:52.424Z,50.60
2019-04-01T22:08:20.691Z,50.50
2019-04-01T22:10:49.172Z,50.40
2019-04-01T22:13:17.421Z,50.40
2019-04-01T22:15:45.684Z,50.80
2019-04-01T22:18:14.319Z,50.90
2019-04-01T22:20:43.306Z,50.80
2019-04-01T22:23:11.561Z,50.60
2019-04-01T22:25:39.793Z,50.50
2019-04-01T22:28:08.289Z,50.50
2019-04-01T22:30:36.539Z,50.10
2019-04-01T22:33:04.783Z,50.20
2019-04-01T22:35:38.434Z,49.60
2019-04-01T22:38:03.582Z,49.50
2019-04-01T22:40:32.164Z,49.80
2019-04-01T22:43:00.460Z,49.80
2019-04-01T22:45:28.705Z,49.40
2019-04-01T22:47:56.945Z,49.30
2019-04-01T22:50:25.184Z,49.60
2019-04-01T22:52:53.422Z,49.40
2019-04-01T22:55:21.673Z,49.20
2019-04-01T22:57:49.921Z,49.50
2019-04-01T23:00:18.510Z,49.30
2019-04-01T23:02:47.318Z,49.00
2019-04-01T23:05:15.566Z,49.00
2019-04-01T23:07:43.819Z,48.90
2019-04-01T23:10:12.067Z,49.20
2019-04-01T23:12:40.308Z,48.90
2019-04-01T23:15:08.569Z,49.10
2019-04-01T23:17:38.260Z,49.10
2019-04-01T23:20:07.265Z,49.50
2019-04-01T23:22:35.769Z,49.30
2019-04-01T23:25:04.591Z,49.40
2019-04-01T23:27:32.828Z,49.30
2019-04-01T23:30:01.330Z,49.70
2019-04-01T23:32:29.572Z,49.40
2019-04-01T23:34:57.829Z,49.80
2019-04-01T23:37:26.069Z,49.80
2019-04-01T23:39:54.321Z,50.30
2019-04-01T23:42:22.564Z,50.10
2019-04-01T23:44:51.287Z,50.00
2019-04-01T23:47:20.433Z,50.50
2019-04-01T23:49:48.950Z,50.20
2019-04-01T23:52:17.193Z,50.50
2019-04-01T23:54:45.444Z,50.60
2019-04-01T23:57:13.684Z,51.00
2019-04-01T23:59:41.940Z,50.80
